sensor_id;sensor_type;location;lat;lon;timestamp;pressure;altitude;pressure_sealevel;temperature;humidity
37238;BME280;23129;49.662;8.448;2023-08-08T00:01:11;100777.94;;;14.29;100.00
37238;BME280;23129;49.662;8.448;2023-08-08T00:03:42;100773.75;;;14.24;100.00
37238;BME280;23129;49.662;8.448;2023-08-08T00:10:51;100786.50;;;14.12;100.00
37238;BME280;23129;49.662;8.448;2023-08-08T00:13:20;100783.06;;;14.10;100.00
37238;BME280;23129;49.662;8.448;2023-08-08T00:16:07;100778.81;;;14.06;100.00
37238;BME280;23129;49.662;8.448;2023-08-08T00:18:58;100781.56;;;14.03;100.00
37238;BME280;23129;49.662;8.448;2023-08-08T00:21:27;100772.88;;;14.00;100.00
37238;BME280;23129;49.662;8.448;2023-08-08T00:23:55;100778.34;;;13.95;100.00
37238;BME280;23129;49.662;8.448;2023-08-08T00:26:24;100777.59;;;13.91;100.00
37238;BME280;23129;49.662;8.448;2023-08-08T00:28:53;100772.47;;;13.87;100.00
37238;BME280;23129;49.662;8.448;2023-08-08T00:31:21;100763.94;;;13.80;100.00
37238;BME280;23129;49.662;8.448;2023-08-08T00:33:50;100760.59;;;13.75;100.00
37238;BME280;23129;49.662;8.448;2023-08-08T00:36:20;100759.94;;;13.70;100.00
37238;BME280;23129;49.662;8.448;2023-08-08T00:38:49;100760.06;;;13.65;100.00
37238;BME280;23129;49.662;8.448;2023-08-08T00:41:18;100765.56;;;13.59;100.00
37238;BME280;23129;49.662;8.448;2023-08-08T00:43:46;100763.97;;;13.55;100.00
37238;BME280;23129;49.662;8.448;2023-08-08T00:46:15;100758.03;;;13.48;100.00
37238;BME280;23129;49.662;8.448;2023-08-08T00:48:49;100760.84;;;13.44;100.00
37238;BME280;23129;49.662;8.448;2023-08-08T00:51:20;100762.75;;;13.39;100.00
37238;BME280;23129;49.662;8.448;2023-08-08T00:53:50;100759.41;;;13.34;100.00
37238;BME280;23129;49.662;8.448;2023-08-08T00:56:19;100750.75;;;13.30;100.00
37238;BME280;23129;49.662;8.448;2023-08-08T00:58:47;100750.00;;;13.27;100.00
37238;BME280;23129;49.662;8.448;2023-08-08T01:01:18;100748.28;;;13.24;100.00
37238;BME280;23129;49.662;8.448;2023-08-08T01:03:47;100751.91;;;13.21;100.00
37238;BME280;23129;49.662;8.448;2023-08-08T01:06:23;100758.13;;;13.19;100.00
37238;BME280;23129;49.662;8.448;2023-08-08T01:08:59;100767.00;;;13.16;100.00
37238;BME280;23129;49.662;8.448;2023-08-08T01:11:32;100763.59;;;13.13;100.00
37238;BME280;23129;49.662;8.448;2023-08-08T01:14:02;100767.25;;;13.09;100.00
37238;BME280;23129;49.662;8.448;2023-08-08T01:16:33;100760.31;;;13.06;100.00
37238;BME280;23129;49.662;8.448;2023-08-08T01:19:02;100760.41;;;13.03;100.00
37238;BME280;23129;49.662;8.448;2023-08-08T01:21:36;100757.88;;;13.00;100.00
37238;BME280;23129;49.662;8.448;2023-08-08T01:24:18;100756.22;;;12.97;100.00
37238;BME280;23129;49.662;8.448;2023-08-08T01:26:47;100755.41;;;12.95;100.00
37238;BME280;23129;49.662;8.448;2023-08-08T01:29:16;100760.72;;;12.94;100.00
37238;BME280;23129;49.662;8.448;2023-08-08T01:31:45;100754.59;;;12.93;100.00
37238;BME280;23129;49.662;8.448;2023-08-08T01:34:14;100752.00;;;12.92;100.00
37238;BME280;23129;49.662;8.448;2023-08-08T01:36:48;100748.56;;;12.90;100.00
37238;BME280;23129;49.662;8.448;2023-08-08T01:39:22;100747.72;;;12.89;100.00
37238;BME280;23129;49.662;8.448;2023-08-08T01:41:54;100751.31;;;12.87;100.00
37238;BME280;23129;49.662;8.448;2023-08-08T01:44:24;100762.72;;;12.86;100.00
37238;BME280;23129;49.662;8.448;2023-08-08T01:46:53;100756.69;;;12.84;100.00
37238;BME280;23129;49.662;8.448;2023-08-08T01:49:22;100761.13;;;12.82;100.00
37238;BME280;23129;49.662;8.448;2023-08-08T01:51:51;100759.41;;;12.81;100.00
37238;BME280;23129;49.662;8.448;2023-08-08T01:54:21;100762.06;;;12.79;100.00
37238;BME280;23129;49.662;8.448;2023-08-08T01:56:50;100762.16;;;12.76;100.00
37238;BME280;23129;49.662;8.448;2023-08-08T01:59:19;100759.59;;;12.74;100.00
37238;BME280;23129;49.662;8.448;2023-08-08T02:01:48;100760.56;;;12.72;100.00
37238;BME280;23129;49.662;8.448;2023-08-08T02:04:16;100750.97;;;12.69;100.00
37238;BME280;23129;49.662;8.448;2023-08-08T02:06:45;100755.47;;;12.66;100.00
37238;BME280;23129;49.662;8.448;2023-08-08T02:09:14;100754.66;;;12.64;100.00
37238;BME280;23129;49.662;8.448;2023-08-08T02:11:46;100750.31;;;12.63;100.00
37238;BME280;23129;49.662;8.448;2023-08-08T02:14:14;100752.16;;;12.59;100.00
37238;BME280;23129;49.662;8.448;2023-08-08T02:16:43;100751.41;;;12.55;100.00
37238;BME280;23129;49.662;8.448;2023-08-08T02:19:12;100747.09;;;12.53;100.00
37238;BME280;23129;49.662;8.448;2023-08-08T02:21:42;100746.31;;;12.49;100.00
37238;BME280;23129;49.662;8.448;2023-08-08T02:24:10;100742.94;;;12.46;100.00
37238;BME280;23129;49.662;8.448;2023-08-08T02:26:39;100743.88;;;12.43;100.00
37238;BME280;23129;49.662;8.448;2023-08-08T02:29:10;100742.22;;;12.41;100.00
37238;BME280;23129;49.662;8.448;2023-08-08T02:31:38;100743.97;;;12.40;100.00
37238;BME280;23129;49.662;8.448;2023-08-08T02:34:07;100746.78;;;12.36;100.00
37238;BME280;23129;49.662;8.448;2023-08-08T02:36:36;100739.75;;;12.34;100.00
37238;BME280;23129;49.662;8.448;2023-08-08T02:39:04;100734.59;;;12.31;100.00
37238;BME280;23129;49.662;8.448;2023-08-08T02:41:33;100740.88;;;12.27;100.00
37238;BME280;23129;49.662;8.448;2023-08-08T02:44:02;100745.31;;;12.25;100.00
37238;BME280;23129;49.662;8.448;2023-08-08T02:46:32;100748.94;;;12.21;100.00
37238;BME280;23129;49.662;8.448;2023-08-08T02:49:01;100747.25;;;12.19;100.00
37238;BME280;23129;49.662;8.448;2023-08-08T02:51:29;100742.13;;;12.14;100.00
37238;BME280;23129;49.662;8.448;2023-08-08T02:53:58;100743.09;;;12.12;100.00
37238;BME280;23129;49.662;8.448;2023-08-08T02:56:28;100733.53;;;12.09;100.00
37238;BME280;23129;49.662;8.448;2023-08-08T02:58:57;100730.09;;;12.07;100.00
37238;BME280;23129;49.662;8.448;2023-08-08T03:01:27;100733.63;;;12.06;100.00
37238;BME280;23129;49.662;8.448;2023-08-08T03:03:58;100726.63;;;12.05;100.00
37238;BME280;23129;49.662;8.448;2023-08-08T03:06:27;100731.09;;;12.03;100.00
37238;BME280;23129;49.662;8.448;2023-08-08T03:08:56;100738.97;;;12.03;100.00
37238;BME280;23129;49.662;8.448;2023-08-08T03:11:25;100730.25;;;12.01;100.00
37238;BME280;23129;49.662;8.448;2023-08-08T03:13:53;100732.91;;;11.99;100.00
37238;BME280;23129;49.662;8.448;2023-08-08T03:16:22;100723.38;;;11.97;100.00
37238;BME280;23129;49.662;8.448;2023-08-08T03:18:52;100732.16;;;11.96;100.00
37238;BME280;23129;49.662;8.448;2023-08-08T03:21:23;100727.84;;;11.93;100.00
37238;BME280;23129;49.662;8.448;2023-08-08T03:23:53;100724.34;;;11.93;100.00
37238;BME280;23129;49.662;8.448;2023-08-08T03:26:21;100729.63;;;11.93;100.00
37238;BME280;23129;49.662;8.448;2023-08-08T03:28:50;100730.53;;;11.92;100.00
37238;BME280;23129;49.662;8.448;2023-08-08T03:31:26;100731.47;;;11.89;100.00
37238;BME280;23129;49.662;8.448;2023-08-08T03:33:56;100728.88;;;11.87;100.00
37238;BME280;23129;49.662;8.448;2023-08-08T03:36:26;100726.31;;;11.86;100.00
37238;BME280;23129;49.662;8.448;2023-08-08T03:38:55;100733.34;;;11.84;100.00
37238;BME280;23129;49.662;8.448;2023-08-08T03:41:23;100728.13;;;11.82;100.00
37238;BME280;23129;49.662;8.448;2023-08-08T03:43:52;100723.84;;;11.78;100.00
37238;BME280;23129;49.662;8.448;2023-08-08T03:46:20;100730.94;;;11.76;100.00
37238;BME280;23129;49.662;8.448;2023-08-08T03:48:49;100734.44;;;11.75;100.00
37238;BME280;23129;49.662;8.448;2023-08-08T03:51:20;100730.97;;;11.75;100.00
37238;BME280;23129;49.662;8.448;2023-08-08T03:53:50;100737.06;;;11.75;100.00
37238;BME280;23129;49.662;8.448;2023-08-08T03:56:19;100742.38;;;11.74;100.00
37238;BME280;23129;49.662;8.448;2023-08-08T03:58:48;100739.78;;;11.72;100.00
37238;BME280;23129;49.662;8.448;2023-08-08T04:01:17;100740.72;;;11.71;100.00
37238;BME280;23129;49.662;8.448;2023-08-08T04:03:46;100741.63;;;11.70;100.00
37238;BME280;23129;49.662;8.448;2023-08-08T04:06:14;100738.16;;;11.68;100.00
37238;BME280;23129;49.662;8.448;2023-08-08T04:08:43;100732.06;;;11.68;100.00
37238;BME280;23129;49.662;8.448;2023-08-08T04:11:13;100736.44;;;11.67;100.00
37238;BME280;23129;49.662;8.448;2023-08-08T04:13:42;100733.91;;;11.64;100.00
37238;BME280;23129;49.662;8.448;2023-08-08T04:16:11;100726.91;;;11.63;100.00
37238;BME280;23129;49.662;8.448;2023-08-08T04:18:39;100735.72;;;11.60;100.00
37238;BME280;23129;49.662;8.448;2023-08-08T04:21:08;100726.13;;;11.59;100.00
37238;BME280;23129;49.662;8.448;2023-08-08T04:23:37;100730.53;;;11.59;100.00
37238;BME280;23129;49.662;8.448;2023-08-08T04:26:05;100740.97;;;11.62;100.00
37238;BME280;23129;49.662;8.448;2023-08-08T04:28:35;100735.72;;;11.60;100.00
37238;BME280;23129;49.662;8.448;2023-08-08T04:31:04;100743.59;;;11.62;100.00
37238;BME280;23129;49.662;8.448;2023-08-08T04:33:32;100741.78;;;11.64;100.00
37238;BME280;23129;49.662;8.448;2023-08-08T04:36:01;100745.22;;;11.66;100.00
37238;BME280;23129;49.662;8.448;2023-08-08T04:38:29;100748.69;;;11.68;100.00
37238;BME280;23129;49.662;8.448;2023-08-08T04:40:58;100739.88;;;11.69;100.00
37238;BME280;23129;49.662;8.448;2023-08-08T04:43:27;100754.75;;;11.70;100.00
37238;BME280;23129;49.662;8.448;2023-08-08T04:45:57;100743.41;;;11.68;100.00
37238;BME280;23129;49.662;8.448;2023-08-08T04:48:26;100740.81;;;11.66;100.00
37238;BME280;23129;49.662;8.448;2023-08-08T04:50:54;100739.19;;;11.62;100.00
37238;BME280;23129;49.662;8.448;2023-08-08T04:53:23;100740.13;;;11.60;100.00
37238;BME280;23129;49.662;8.448;2023-08-08T04:55:51;100745.47;;;11.57;100.00
37238;BME280;23129;49.662;8.448;2023-08-08T04:58:20;100746.38;;;11.56;100.00
37238;BME280;23129;49.662;8.448;2023-08-08T05:00:49;100747.31;;;11.55;100.00
37238;BME280;23129;49.662;8.448;2023-08-08T05:03:20;100749.00;;;11.56;100.00
37238;BME280;23129;49.662;8.448;2023-08-08T05:05:49;100745.47;;;11.57;100.00
37238;BME280;23129;49.662;8.448;2023-08-08T05:08:17;100752.47;;;11.58;100.00
37238;BME280;23129;49.662;8.448;2023-08-08T05:10:47;100741.97;;;11.58;100.00
37238;BME280;23129;49.662;8.448;2023-08-08T05:13:16;100747.94;;;11.63;100.00
37238;BME280;23129;49.662;8.448;2023-08-08T05:15:44;100745.22;;;11.66;100.00
37238;BME280;23129;49.662;8.448;2023-08-08T05:18:13;100736.38;;;11.70;100.00
37238;BME280;23129;49.662;8.448;2023-08-08T05:20:43;100738.81;;;11.76;100.00
37238;BME280;23129;49.662;8.448;2023-08-08T05:23:12;100737.91;;;11.77;100.00
37238;BME280;23129;49.662;8.448;2023-08-08T05:25:40;100741.22;;;11.85;100.00
37238;BME280;23129;49.662;8.448;2023-08-08T05:28:09;100742.84;;;11.90;100.00
37238;BME280;23129;49.662;8.448;2023-08-08T05:30:38;100737.41;;;11.96;100.00
37238;BME280;23129;49.662;8.448;2023-08-08T05:33:06;100733.81;;;12.00;100.00
37238;BME280;23129;49.662;8.448;2023-08-08T05:35:35;100732.75;;;12.05;100.00
37238;BME280;23129;49.662;8.448;2023-08-08T05:38:05;100739.59;;;12.11;100.00
37238;BME280;23129;49.662;8.448;2023-08-08T05:40:35;100735.06;;;12.16;100.00
37238;BME280;23129;49.662;8.448;2023-08-08T05:43:03;100733.97;;;12.23;100.00
37238;BME280;23129;49.662;8.448;2023-08-08T05:45:32;100731.94;;;12.33;100.00
37238;BME280;23129;49.662;8.448;2023-08-08T05:48:01;100735.78;;;12.51;100.00
37238;BME280;23129;49.662;8.448;2023-08-08T05:50:29;100735.13;;;12.71;100.00
37238;BME280;23129;49.662;8.448;2023-08-08T05:52:58;100737.19;;;12.89;100.00
37238;BME280;23129;49.662;8.448;2023-08-08T05:55:28;100733.06;;;13.07;100.00
37238;BME280;23129;49.662;8.448;2023-08-08T05:57:57;100738.72;;;13.21;100.00
37238;BME280;23129;49.662;8.448;2023-08-08T06:00:25;100736.50;;;13.36;100.00
37238;BME280;23129;49.662;8.448;2023-08-08T06:02:54;100727.28;;;13.49;100.00
37238;BME280;23129;49.662;8.448;2023-08-08T06:05:23;100720.69;;;13.61;100.00
37238;BME280;23129;49.662;8.448;2023-08-08T06:07:52;100731.66;;;13.74;100.00
37238;BME280;23129;49.662;8.448;2023-08-08T06:10:22;100737.34;;;13.86;100.00
37238;BME280;23129;49.662;8.448;2023-08-08T06:12:53;100733.44;;;13.97;100.00
37238;BME280;23129;49.662;8.448;2023-08-08T06:15:22;100736.63;;;14.06;100.00
37238;BME280;23129;49.662;8.448;2023-08-08T06:17:51;100731.88;;;14.14;100.00
37238;BME280;23129;49.662;8.448;2023-08-08T06:20:19;100734.06;;;14.27;100.00
37238;BME280;23129;49.662;8.448;2023-08-08T06:22:49;100743.34;;;14.37;100.00
37238;BME280;23129;49.662;8.448;2023-08-08T06:25:18;100737.72;;;14.46;100.00
37238;BME280;23129;49.662;8.448;2023-08-08T06:27:47;100741.84;;;14.53;100.00
37238;BME280;23129;49.662;8.448;2023-08-08T06:30:18;100742.41;;;14.61;100.00
37238;BME280;23129;49.662;8.448;2023-08-08T06:32:46;100738.59;;;14.69;100.00
37238;BME280;23129;49.662;8.448;2023-08-08T06:35:15;100732.09;;;14.77;100.00
37238;BME280;23129;49.662;8.448;2023-08-08T06:37:45;100738.72;;;14.88;100.00
37238;BME280;23129;49.662;8.448;2023-08-08T06:40:13;100732.22;;;14.96;100.00
37238;BME280;23129;49.662;8.448;2023-08-08T06:42:42;100745.94;;;15.04;100.00
37238;BME280;23129;49.662;8.448;2023-08-08T06:45:11;100737.66;;;15.14;100.00
37238;BME280;23129;49.662;8.448;2023-08-08T06:47:41;100742.34;;;15.27;100.00
37238;BME280;23129;49.662;8.448;2023-08-08T06:50:10;100737.38;;;15.40;100.00
37238;BME280;23129;49.662;8.448;2023-08-08T06:52:38;100750.09;;;15.52;100.00
37238;BME280;23129;49.662;8.448;2023-08-08T06:55:08;100718.88;;;15.61;100.00
37238;BME280;23129;49.662;8.448;2023-08-08T06:57:40;100729.44;;;15.61;100.00
37238;BME280;23129;49.662;8.448;2023-08-08T07:00:10;100718.72;;;15.64;100.00
37238;BME280;23129;49.662;8.448;2023-08-08T07:02:42;100724.03;;;15.64;100.00
37238;BME280;23129;49.662;8.448;2023-08-08T07:05:10;100722.06;;;15.69;100.00
37238;BME280;23129;49.662;8.448;2023-08-08T07:07:39;100719.94;;;15.77;100.00
37238;BME280;23129;49.662;8.448;2023-08-08T07:10:08;100719.53;;;15.86;100.00
37238;BME280;23129;49.662;8.448;2023-08-08T07:12:37;100718.25;;;15.95;100.00
37238;BME280;23129;49.662;8.448;2023-08-08T07:15:07;100716.97;;;16.04;100.00
37238;BME280;23129;49.662;8.448;2023-08-08T07:17:36;100722.56;;;16.16;100.00
37238;BME280;23129;49.662;8.448;2023-08-08T07:20:07;100724.41;;;16.33;100.00
37238;BME280;23129;49.662;8.448;2023-08-08T07:22:37;100721.59;;;16.55;100.00
37238;BME280;23129;49.662;8.448;2023-08-08T07:25:07;100716.47;;;16.88;100.00
37238;BME280;23129;49.662;8.448;2023-08-08T07:27:36;100722.88;;;17.37;100.00
37238;BME280;23129;49.662;8.448;2023-08-08T07:30:05;100720.69;;;18.11;100.00
37238;BME280;23129;49.662;8.448;2023-08-08T07:32:35;100709.88;;;18.93;100.00
37238;BME280;23129;49.662;8.448;2023-08-08T07:35:06;100702.94;;;19.66;100.00
37238;BME280;23129;49.662;8.448;2023-08-08T07:37:36;100699.69;;;20.30;100.00
37238;BME280;23129;49.662;8.448;2023-08-08T07:40:14;100704.34;;;20.56;100.00
37238;BME280;23129;49.662;8.448;2023-08-08T07:42:45;100699.88;;;20.56;100.00
37238;BME280;23129;49.662;8.448;2023-08-08T07:45:14;100695.59;;;20.54;100.00
37238;BME280;23129;49.662;8.448;2023-08-08T07:47:42;100699.00;;;20.56;100.00
37238;BME280;23129;49.662;8.448;2023-08-08T07:50:13;100706.50;;;20.49;100.00
37238;BME280;23129;49.662;8.448;2023-08-08T07:52:41;100705.72;;;20.34;100.00
37238;BME280;23129;49.662;8.448;2023-08-08T07:55:10;100702.47;;;20.29;100.00
37238;BME280;23129;49.662;8.448;2023-08-08T07:57:39;100712.75;;;20.35;100.00
37238;BME280;23129;49.662;8.448;2023-08-08T08:00:08;100695.38;;;20.42;100.00
37238;BME280;23129;49.662;8.448;2023-08-08T08:02:41;100697.16;;;20.29;100.00
37238;BME280;23129;49.662;8.448;2023-08-08T08:05:12;100688.38;;;20.27;100.00
37238;BME280;23129;49.662;8.448;2023-08-08T08:07:41;100693.06;;;20.23;100.00
37238;BME280;23129;49.662;8.448;2023-08-08T08:10:11;100698.78;;;20.17;100.00
37238;BME280;23129;49.662;8.448;2023-08-08T08:12:41;100702.22;;;20.19;100.00
37238;BME280;23129;49.662;8.448;2023-08-08T08:15:10;100696.34;;;20.41;100.00
37238;BME280;23129;49.662;8.448;2023-08-08T08:17:39;100695.19;;;20.60;100.00
37238;BME280;23129;49.662;8.448;2023-08-08T08:20:10;100690.94;;;20.70;100.00
37238;BME280;23129;49.662;8.448;2023-08-08T08:22:41;100697.19;;;20.83;100.00
37238;BME280;23129;49.662;8.448;2023-08-08T08:25:09;100699.50;;;20.75;100.00
37238;BME280;23129;49.662;8.448;2023-08-08T08:27:38;100699.69;;;20.72;100.00
37238;BME280;23129;49.662;8.448;2023-08-08T08:30:08;100694.56;;;20.69;100.00
37238;BME280;23129;49.662;8.448;2023-08-08T08:32:38;100687.75;;;20.65;98.29
37238;BME280;23129;49.662;8.448;2023-08-08T08:35:08;100684.53;;;20.60;99.74
37238;BME280;23129;49.662;8.448;2023-08-08T08:37:40;100682.72;;;20.73;100.00
37238;BME280;23129;49.662;8.448;2023-08-08T08:40:10;100684.63;;;20.85;100.00
37238;BME280;23129;49.662;8.448;2023-08-08T08:42:40;100689.75;;;21.01;98.76
37238;BME280;23129;49.662;8.448;2023-08-08T08:45:09;100696.50;;;21.19;99.63
37238;BME280;23129;49.662;8.448;2023-08-08T08:47:40;100682.22;;;21.33;97.30
37238;BME280;23129;49.662;8.448;2023-08-08T08:50:09;100686.81;;;21.31;97.14
37238;BME280;23129;49.662;8.448;2023-08-08T08:52:40;100678.16;;;21.28;97.99
37238;BME280;23129;49.662;8.448;2023-08-08T08:55:09;100678.69;;;21.33;98.29
37238;BME280;23129;49.662;8.448;2023-08-08T08:57:38;100674.03;;;21.36;95.63
37238;BME280;23129;49.662;8.448;2023-08-08T09:00:08;100671.25;;;21.51;96.18
37238;BME280;23129;49.662;8.448;2023-08-08T09:02:38;100670.56;;;21.85;95.25
37238;BME280;23129;49.662;8.448;2023-08-08T09:05:08;100670.75;;;22.08;92.08
37238;BME280;23129;49.662;8.448;2023-08-08T09:07:37;100661.97;;;22.19;88.33
37238;BME280;23129;49.662;8.448;2023-08-08T09:10:08;100661.31;;;22.15;88.30
37238;BME280;23129;49.662;8.448;2023-08-08T09:12:37;100671.19;;;22.02;86.25
37238;BME280;23129;49.662;8.448;2023-08-08T09:15:06;100661.38;;;21.89;85.57
37238;BME280;23129;49.662;8.448;2023-08-08T09:17:40;100659.44;;;21.92;85.59
37238;BME280;23129;49.662;8.448;2023-08-08T09:20:17;100663.56;;;22.21;86.97
37238;BME280;23129;49.662;8.448;2023-08-08T09:22:45;100663.38;;;22.84;86.99
37238;BME280;23129;49.662;8.448;2023-08-08T09:25:15;100665.25;;;23.41;84.77
37238;BME280;23129;49.662;8.448;2023-08-08T09:27:43;100642.53;;;23.80;82.66
37238;BME280;23129;49.662;8.448;2023-08-08T09:30:12;100648.56;;;24.05;81.80
37238;BME280;23129;49.662;8.448;2023-08-08T09:32:43;100640.34;;;24.29;83.21
37238;BME280;23129;49.662;8.448;2023-08-08T09:35:12;100641.06;;;24.53;84.25
37238;BME280;23129;49.662;8.448;2023-08-08T09:37:42;100650.19;;;24.83;81.40
37238;BME280;23129;49.662;8.448;2023-08-08T09:40:11;100645.78;;;25.03;80.35
37238;BME280;23129;49.662;8.448;2023-08-08T09:42:41;100656.56;;;25.24;76.94
37238;BME280;23129;49.662;8.448;2023-08-08T09:45:10;100636.88;;;25.44;75.92
37238;BME280;23129;49.662;8.448;2023-08-08T09:47:39;100636.78;;;25.86;77.03
37238;BME280;23129;49.662;8.448;2023-08-08T09:50:08;100632.63;;;26.13;77.37
37238;BME280;23129;49.662;8.448;2023-08-08T09:52:37;100644.50;;;26.10;74.10
37238;BME280;23129;49.662;8.448;2023-08-08T09:55:07;100634.16;;;25.75;72.05
37238;BME280;23129;49.662;8.448;2023-08-08T09:57:38;100646.81;;;25.54;71.39
37238;BME280;23129;49.662;8.448;2023-08-08T10:00:10;100633.16;;;25.36;72.02
37238;BME280;23129;49.662;8.448;2023-08-08T10:02:44;100638.53;;;25.36;70.72
37238;BME280;23129;49.662;8.448;2023-08-08T10:05:14;100634.72;;;25.38;71.58
37238;BME280;23129;49.662;8.448;2023-08-08T10:07:43;100639.75;;;25.53;71.12
37238;BME280;23129;49.662;8.448;2023-08-08T10:10:12;100644.78;;;25.67;70.78
37238;BME280;23129;49.662;8.448;2023-08-08T10:12:41;100637.84;;;25.74;70.59
37238;BME280;23129;49.662;8.448;2023-08-08T10:15:11;100628.63;;;25.98;71.05
37238;BME280;23129;49.662;8.448;2023-08-08T10:17:41;100633.47;;;26.23;71.05
37238;BME280;23129;49.662;8.448;2023-08-08T10:20:11;100631.78;;;26.12;70.17
37238;BME280;23129;49.662;8.448;2023-08-08T10:22:43;100630.06;;;25.71;70.02
37238;BME280;23129;49.662;8.448;2023-08-08T10:25:22;100625.97;;;25.67;69.81
37238;BME280;23129;49.662;8.448;2023-08-08T10:28:02;100631.94;;;25.80;67.95
37238;BME280;23129;49.662;8.448;2023-08-08T10:30:55;100626.00;;;25.77;67.88
37238;BME280;23129;49.662;8.448;2023-08-08T10:33:26;100625.47;;;25.83;65.59
37238;BME280;23129;49.662;8.448;2023-08-08T10:35:57;100623.13;;;26.09;66.13
37238;BME280;23129;49.662;8.448;2023-08-08T10:38:37;100624.84;;;26.29;65.39
37238;BME280;23129;49.662;8.448;2023-08-08T10:41:10;100623.88;;;26.40;60.72
37238;BME280;23129;49.662;8.448;2023-08-08T10:43:46;100623.34;;;26.56;61.67
37238;BME280;23129;49.662;8.448;2023-08-08T10:46:23;100627.13;;;26.82;59.20
37238;BME280;23129;49.662;8.448;2023-08-08T10:48:54;100618.34;;;27.00;61.59
37238;BME280;23129;49.662;8.448;2023-08-08T10:51:23;100609.25;;;27.01;62.51
37238;BME280;23129;49.662;8.448;2023-08-08T10:53:52;100605.72;;;27.20;62.81
37238;BME280;23129;49.662;8.448;2023-08-08T10:56:23;100605.88;;;27.46;60.90
37238;BME280;23129;49.662;8.448;2023-08-08T10:58:52;100606.03;;;27.82;59.55
37238;BME280;23129;49.662;8.448;2023-08-08T11:01:25;100609.06;;;27.96;59.19
37238;BME280;23129;49.662;8.448;2023-08-08T11:03:55;100618.28;;;27.94;58.09
37238;BME280;23129;49.662;8.448;2023-08-08T11:06:25;100604.59;;;27.77;58.37
37238;BME280;23129;49.662;8.448;2023-08-08T11:08:55;100618.53;;;27.83;57.08
37238;BME280;23129;49.662;8.448;2023-08-08T11:11:23;100618.22;;;27.86;57.96
37238;BME280;23129;49.662;8.448;2023-08-08T11:13:52;100619.50;;;27.82;56.20
37238;BME280;23129;49.662;8.448;2023-08-08T11:16:22;100605.28;;;27.89;55.73
37238;BME280;23129;49.662;8.448;2023-08-08T11:18:50;100614.09;;;28.09;55.66
37238;BME280;23129;49.662;8.448;2023-08-08T11:21:23;100610.91;;;27.96;53.85
37238;BME280;23129;49.662;8.448;2023-08-08T11:23:52;100612.41;;;27.53;53.04
37238;BME280;23129;49.662;8.448;2023-08-08T11:26:21;100613.69;;;26.82;52.48
37238;BME280;23129;49.662;8.448;2023-08-08T11:28:51;100616.09;;;26.37;54.14
37238;BME280;23129;49.662;8.448;2023-08-08T11:31:21;100608.25;;;26.14;54.90
37238;BME280;23129;49.662;8.448;2023-08-08T11:33:50;100622.13;;;26.10;56.44
37238;BME280;23129;49.662;8.448;2023-08-08T11:36:19;100619.00;;;26.05;57.39
37238;BME280;23129;49.662;8.448;2023-08-08T11:38:49;100620.41;;;25.99;58.27
37238;BME280;23129;49.662;8.448;2023-08-08T11:41:21;100602.72;;;25.96;59.01
37238;BME280;23129;49.662;8.448;2023-08-08T11:43:51;100604.34;;;25.78;58.24
37238;BME280;23129;49.662;8.448;2023-08-08T11:46:25;100600.16;;;25.55;56.02
37238;BME280;23129;49.662;8.448;2023-08-08T11:48:53;100604.41;;;25.57;57.93
37238;BME280;23129;49.662;8.448;2023-08-08T11:51:23;100602.75;;;25.66;57.47
37238;BME280;23129;49.662;8.448;2023-08-08T11:53:53;100603.38;;;25.79;58.01
37238;BME280;23129;49.662;8.448;2023-08-08T11:56:22;100597.47;;;25.85;57.64
37238;BME280;23129;49.662;8.448;2023-08-08T11:58:51;100600.31;;;25.93;57.94
37238;BME280;23129;49.662;8.448;2023-08-08T12:01:24;100598.06;;;25.99;55.94
37238;BME280;23129;49.662;8.448;2023-08-08T12:03:53;100591.28;;;26.04;55.61
37238;BME280;23129;49.662;8.448;2023-08-08T12:06:22;100593.97;;;26.14;56.08
37238;BME280;23129;49.662;8.448;2023-08-08T12:08:56;100583.09;;;26.45;55.61
37238;BME280;23129;49.662;8.448;2023-08-08T12:11:24;100587.22;;;26.68;54.54
37238;BME280;23129;49.662;8.448;2023-08-08T12:13:59;100580.81;;;26.89;51.52
37238;BME280;23129;49.662;8.448;2023-08-08T12:16:30;100577.94;;;27.00;52.68
37238;BME280;23129;49.662;8.448;2023-08-08T12:19:02;100589.16;;;26.85;53.46
37238;BME280;23129;49.662;8.448;2023-08-08T12:21:31;100585.97;;;26.62;55.30
37238;BME280;23129;49.662;8.448;2023-08-08T12:24:00;100584.38;;;26.50;56.11
37238;BME280;23129;49.662;8.448;2023-08-08T12:26:30;100583.41;;;26.61;55.91
37238;BME280;23129;49.662;8.448;2023-08-08T12:28:58;100577.16;;;26.70;54.76
37238;BME280;23129;49.662;8.448;2023-08-08T12:31:28;100587.91;;;26.70;54.65
37238;BME280;23129;49.662;8.448;2023-08-08T12:33:57;100578.84;;;26.81;54.62
37238;BME280;23129;49.662;8.448;2023-08-08T12:36:25;100573.84;;;26.96;54.24
37238;BME280;23129;49.662;8.448;2023-08-08T12:38:54;100575.84;;;26.94;53.85
37238;BME280;23129;49.662;8.448;2023-08-08T12:41:23;100571.75;;;26.80;54.26
37238;BME280;23129;49.662;8.448;2023-08-08T12:43:53;100576.28;;;26.79;53.85
37238;BME280;23129;49.662;8.448;2023-08-08T12:46:21;100575.56;;;26.77;52.79
37238;BME280;23129;49.662;8.448;2023-08-08T12:48:51;100576.28;;;26.79;52.83
37238;BME280;23129;49.662;8.448;2023-08-08T12:51:20;100568.78;;;26.93;53.09
37238;BME280;23129;49.662;8.448;2023-08-08T12:53:49;100575.09;;;27.48;53.09
37238;BME280;23129;49.662;8.448;2023-08-08T12:56:18;100571.38;;;27.87;52.32
37238;BME280;23129;49.662;8.448;2023-08-08T12:58:46;100574.31;;;27.66;52.69
37238;BME280;23129;49.662;8.448;2023-08-08T13:01:15;100559.47;;;27.24;53.72